< Cyclone 197510 1975 Season Cyclone 197513 >
Cyclone 197512 (WILMA)
General InformationTrack Information on Google Maps || ResourceGoogle EarthGE AnimationAtom FeedGeoJSON
Detalied Best Track (Time Zone = UTC)
Year Month Day Hour Lat. Long. Pressure (hPa) Wind (kt) Class Image Chart
1975 3 10 18 -10.4 134.5 998 0 0 -- --
1975 3 10 21 -10.4 134.0 995 0 0 -- --
1975 3 11 00 -10.4 133.5 995 0 0 -- --
1975 3 11 03 -10.4 133.3 995 0 0 -- --
1975 3 11 06 -10.4 133.0 995 0 0 -- --
1975 3 11 09 -10.4 132.7 995 0 0 -- --
1975 3 11 12 -10.4 132.5 990 0 0 -- --
1975 3 11 15 -10.4 132.3 990 0 0 -- --
1975 3 11 18 -10.4 132.0 985 0 0 -- --
1975 3 11 21 -10.5 131.8 985 0 0 -- --
1975 3 12 00 -10.6 131.5 985 0 0 -- --
1975 3 12 03 -10.7 131.3 985 0 0 -- --
1975 3 12 06 -10.7 131.0 985 0 0 -- --
1975 3 12 09 -10.8 130.8 985 0 0 -- --
1975 3 12 12 -10.9 130.5 990 0 0 -- --
1975 3 12 15 -11.0 130.3 990 0 0 -- --
1975 3 12 18 -11.2 130.0 990 0 0 -- --
1975 3 12 21 -11.4 129.7 990 0 0 -- --
1975 3 13 00 -11.7 129.6 990 0 0 -- --
1975 3 13 03 -12.0 129.5 990 0 0 -- --
1975 3 13 06 -12.1 129.2 990 0 0 -- --
1975 3 13 09 -12.3 129.0 990 0 0 -- --
1975 3 13 12 -12.5 128.8 990 0 0 -- --
1975 3 13 15 -12.9 128.6 990 0 0 -- --
1975 3 13 18 -13.2 128.5 985 0 0 -- --
1975 3 13 21 -13.3 128.4 985 0 0 -- --
1975 3 14 00 -13.6 128.2 985 0 0 -- --
1975 3 14 03 -13.9 128.1 985 0 0 -- --
1975 3 14 06 -14.5 128.1 980 0 0 -- --
1975 3 14 09 -14.7 128.0 980 0 0 -- --
1975 3 14 12 -15.1 128.0 980 0 0 -- --
< Cyclone 197510 1975 Season Cyclone 197513 >

Help